sensor_id;sensor_type;location;lat;lon;timestamp;P1;durP1;ratioP1;P2;durP2;ratioP2
5612;SDS011;63463;53.586;9.928;2024-03-23T00:54:44;150.67;;;19.50;;
5612;SDS011;63463;53.586;9.928;2024-03-23T00:57:13;151.20;;;21.50;;
5612;SDS011;63463;53.586;9.928;2024-03-23T00:59:39;150.90;;;21.00;;
5612;SDS011;63463;53.586;9.928;2024-03-23T01:02:05;151.30;;;21.70;;
5612;SDS011;63463;53.586;9.928;2024-03-23T01:04:31;150.57;;;20.93;;
5612;SDS011;63463;53.586;9.928;2024-03-23T01:06:58;150.37;;;21.30;;
5612;SDS011;63463;53.586;9.928;2024-03-23T01:09:27;154.20;;;20.80;;
5612;SDS011;63463;53.586;9.928;2024-03-23T01:11:53;149.70;;;20.47;;
5612;SDS011;63463;53.586;9.928;2024-03-23T01:14:19;149.47;;;20.10;;
5612;SDS011;63463;53.586;9.928;2024-03-23T01:16:45;149.07;;;19.90;;
5612;SDS011;63463;53.586;9.928;2024-03-23T01:19:11;149.57;;;19.83;;
5612;SDS011;63463;53.586;9.928;2024-03-23T01:21:37;157.07;;;19.60;;
5612;SDS011;63463;53.586;9.928;2024-03-23T01:24:08;149.17;;;19.60;;
5612;SDS011;63463;53.586;9.928;2024-03-23T01:26:35;149.80;;;19.53;;
5612;SDS011;63463;53.586;9.928;2024-03-23T01:29:05;149.17;;;19.43;;
5612;SDS011;63463;53.586;9.928;2024-03-23T01:31:33;150.87;;;21.03;;
5612;SDS011;63463;53.586;9.928;2024-03-23T01:34:02;148.87;;;19.03;;
5612;SDS011;63463;53.586;9.928;2024-03-23T01:36:29;149.37;;;19.63;;
5612;SDS011;63463;53.586;9.928;2024-03-23T01:38:55;147.40;;;17.50;;
5612;SDS011;63463;53.586;9.928;2024-03-23T01:41:24;147.60;;;18.50;;
5612;SDS011;63463;53.586;9.928;2024-03-23T01:43:55;148.17;;;18.53;;
5612;SDS011;63463;53.586;9.928;2024-03-23T01:46:24;148.50;;;19.17;;
5612;SDS011;63463;53.586;9.928;2024-03-23T01:48:51;147.33;;;18.43;;
5612;SDS011;63463;53.586;9.928;2024-03-23T01:51:25;147.27;;;18.60;;
5612;SDS011;63463;53.586;9.928;2024-03-23T01:53:51;151.73;;;21.23;;
5612;SDS011;63463;53.586;9.928;2024-03-23T01:56:18;148.63;;;19.07;;
5612;SDS011;63463;53.586;9.928;2024-03-23T01:58:45;149.47;;;19.90;;
5612;SDS011;63463;53.586;9.928;2024-03-23T02:01:14;149.83;;;19.87;;
5612;SDS011;63463;53.586;9.928;2024-03-23T02:03:43;149.17;;;19.33;;
5612;SDS011;63463;53.586;9.928;2024-03-23T02:06:14;149.70;;;19.83;;
5612;SDS011;63463;53.586;9.928;2024-03-23T02:08:43;148.20;;;18.93;;
5612;SDS011;63463;53.586;9.928;2024-03-23T02:11:13;149.70;;;20.27;;
5612;SDS011;63463;53.586;9.928;2024-03-23T02:13:45;172.13;;;20.63;;
5612;SDS011;63463;53.586;9.928;2024-03-23T02:16:13;149.37;;;20.30;;
5612;SDS011;63463;53.586;9.928;2024-03-23T02:18:39;156.00;;;20.63;;
5612;SDS011;63463;53.586;9.928;2024-03-23T02:21:06;149.13;;;19.53;;
5612;SDS011;63463;53.586;9.928;2024-03-23T02:23:38;151.47;;;19.73;;
5612;SDS011;63463;53.586;9.928;2024-03-23T02:26:06;148.57;;;19.00;;
5612;SDS011;63463;53.586;9.928;2024-03-23T02:28:35;149.40;;;18.70;;
5612;SDS011;63463;53.586;9.928;2024-03-23T02:31:01;150.90;;;20.50;;
5612;SDS011;63463;53.586;9.928;2024-03-23T02:33:29;150.97;;;20.30;;
5612;SDS011;63463;53.586;9.928;2024-03-23T02:35:59;151.27;;;20.40;;
5612;SDS011;63463;53.586;9.928;2024-03-23T02:38:25;150.77;;;20.40;;
5612;SDS011;63463;53.586;9.928;2024-03-23T02:40:51;151.17;;;20.90;;
5612;SDS011;63463;53.586;9.928;2024-03-23T02:43:17;149.77;;;19.93;;
5612;SDS011;63463;53.586;9.928;2024-03-23T02:45:43;150.40;;;20.60;;
5612;SDS011;63463;53.586;9.928;2024-03-23T02:48:09;151.00;;;21.20;;
5612;SDS011;63463;53.586;9.928;2024-03-23T02:50:35;150.80;;;20.80;;
5612;SDS011;63463;53.586;9.928;2024-03-23T02:53:02;150.53;;;20.47;;
5612;SDS011;63463;53.586;9.928;2024-03-23T02:55:28;151.63;;;21.27;;
5612;SDS011;63463;53.586;9.928;2024-03-23T02:57:56;168.87;;;22.60;;
5612;SDS011;63463;53.586;9.928;2024-03-23T03:00:26;151.10;;;21.17;;
5612;SDS011;63463;53.586;9.928;2024-03-23T03:02:52;150.97;;;19.80;;
5612;SDS011;63463;53.586;9.928;2024-03-23T03:05:19;151.07;;;19.77;;
5612;SDS011;63463;53.586;9.928;2024-03-23T03:07:48;150.87;;;20.47;;
5612;SDS011;63463;53.586;9.928;2024-03-23T03:10:17;152.97;;;20.43;;
5612;SDS011;63463;53.586;9.928;2024-03-23T03:12:45;150.17;;;19.10;;
5612;SDS011;63463;53.586;9.928;2024-03-23T03:15:14;150.17;;;19.00;;
5612;SDS011;63463;53.586;9.928;2024-03-23T03:17:40;150.53;;;19.27;;
5612;SDS011;63463;53.586;9.928;2024-03-23T03:20:09;150.80;;;19.67;;
5612;SDS011;63463;53.586;9.928;2024-03-23T03:22:41;150.60;;;19.30;;
5612;SDS011;63463;53.586;9.928;2024-03-23T03:25:07;151.00;;;19.50;;
5612;SDS011;63463;53.586;9.928;2024-03-23T03:27:33;150.60;;;19.00;;
5612;SDS011;63463;53.586;9.928;2024-03-23T03:30:05;151.30;;;19.53;;
5612;SDS011;63463;53.586;9.928;2024-03-23T03:32:33;156.77;;;20.60;;
5612;SDS011;63463;53.586;9.928;2024-03-23T03:34:59;172.93;;;19.97;;
5612;SDS011;63463;53.586;9.928;2024-03-23T03:37:25;151.77;;;19.97;;
5612;SDS011;63463;53.586;9.928;2024-03-23T03:39:57;151.60;;;20.07;;
5612;SDS011;63463;53.586;9.928;2024-03-23T03:42:26;151.10;;;19.67;;
5612;SDS011;63463;53.586;9.928;2024-03-23T03:44:52;151.20;;;20.13;;
5612;SDS011;63463;53.586;9.928;2024-03-23T03:47:19;151.73;;;19.90;;
5612;SDS011;63463;53.586;9.928;2024-03-23T03:49:45;152.20;;;20.17;;
5612;SDS011;63463;53.586;9.928;2024-03-23T03:52:11;152.20;;;20.63;;
5612;SDS011;63463;53.586;9.928;2024-03-23T03:54:37;151.77;;;20.20;;
5612;SDS011;63463;53.586;9.928;2024-03-23T03:57:03;152.33;;;20.80;;
5612;SDS011;63463;53.586;9.928;2024-03-23T03:59:29;152.27;;;21.00;;
5612;SDS011;63463;53.586;9.928;2024-03-23T04:01:55;151.97;;;21.00;;
5612;SDS011;63463;53.586;9.928;2024-03-23T04:04:21;152.20;;;22.37;;
5612;SDS011;63463;53.586;9.928;2024-03-23T04:06:47;153.07;;;22.50;;
5612;SDS011;63463;53.586;9.928;2024-03-23T04:09:14;155.00;;;24.70;;
5612;SDS011;63463;53.586;9.928;2024-03-23T04:11:40;153.77;;;23.27;;
5612;SDS011;63463;53.586;9.928;2024-03-23T04:14:06;154.67;;;24.47;;
5612;SDS011;63463;53.586;9.928;2024-03-23T04:16:35;169.43;;;25.20;;
5612;SDS011;63463;53.586;9.928;2024-03-23T04:19:01;155.40;;;23.60;;
5612;SDS011;63463;53.586;9.928;2024-03-23T04:21:27;155.73;;;23.70;;
5612;SDS011;63463;53.586;9.928;2024-03-23T04:23:53;153.67;;;21.87;;
5612;SDS011;63463;53.586;9.928;2024-03-23T04:26:19;153.70;;;22.13;;
5612;SDS011;63463;53.586;9.928;2024-03-23T04:28:45;153.13;;;21.50;;
5612;SDS011;63463;53.586;9.928;2024-03-23T04:31:11;153.27;;;21.50;;
5612;SDS011;63463;53.586;9.928;2024-03-23T04:33:36;154.37;;;21.57;;
5612;SDS011;63463;53.586;9.928;2024-03-23T04:36:02;153.30;;;20.67;;
5612;SDS011;63463;53.586;9.928;2024-03-23T04:38:28;153.80;;;21.00;;
5612;SDS011;63463;53.586;9.928;2024-03-23T04:40:58;157.17;;;22.03;;
5612;SDS011;63463;53.586;9.928;2024-03-23T04:43:27;154.83;;;21.03;;
5612;SDS011;63463;53.586;9.928;2024-03-23T04:45:53;154.87;;;21.80;;
5612;SDS011;63463;53.586;9.928;2024-03-23T04:48:20;155.20;;;22.87;;
5612;SDS011;63463;53.586;9.928;2024-03-23T04:50:47;154.87;;;22.67;;
5612;SDS011;63463;53.586;9.928;2024-03-23T04:53:13;154.90;;;22.53;;
5612;SDS011;63463;53.586;9.928;2024-03-23T04:55:40;155.17;;;23.10;;
5612;SDS011;63463;53.586;9.928;2024-03-23T04:58:06;155.27;;;23.20;;
5612;SDS011;63463;53.586;9.928;2024-03-23T05:00:32;155.67;;;22.80;;
5612;SDS011;63463;53.586;9.928;2024-03-23T05:02:58;156.47;;;23.33;;
5612;SDS011;63463;53.586;9.928;2024-03-23T05:05:24;155.70;;;23.30;;
5612;SDS011;63463;53.586;9.928;2024-03-23T05:07:50;158.87;;;25.23;;
5612;SDS011;63463;53.586;9.928;2024-03-23T05:10:16;158.37;;;26.10;;
5612;SDS011;63463;53.586;9.928;2024-03-23T05:12:42;182.63;;;25.73;;
5612;SDS011;63463;53.586;9.928;2024-03-23T05:15:10;155.87;;;24.07;;
5612;SDS011;63463;53.586;9.928;2024-03-23T05:17:36;158.53;;;25.40;;
5612;SDS011;63463;53.586;9.928;2024-03-23T05:20:02;156.37;;;24.80;;
5612;SDS011;63463;53.586;9.928;2024-03-23T05:22:28;156.27;;;25.07;;
5612;SDS011;63463;53.586;9.928;2024-03-23T05:24:55;155.70;;;23.67;;
5612;SDS011;63463;53.586;9.928;2024-03-23T05:27:21;155.90;;;23.60;;
5612;SDS011;63463;53.586;9.928;2024-03-23T05:29:48;154.43;;;22.47;;
5612;SDS011;63463;53.586;9.928;2024-03-23T05:32:14;154.37;;;22.90;;
5612;SDS011;63463;53.586;9.928;2024-03-23T05:34:40;155.27;;;23.27;;
5612;SDS011;63463;53.586;9.928;2024-03-23T05:37:05;154.97;;;22.77;;
5612;SDS011;63463;53.586;9.928;2024-03-23T05:39:31;157.30;;;24.40;;
5612;SDS011;63463;53.586;9.928;2024-03-23T05:41:57;156.97;;;24.20;;
5612;SDS011;63463;53.586;9.928;2024-03-23T05:44:23;155.60;;;23.10;;
5612;SDS011;63463;53.586;9.928;2024-03-23T05:46:49;156.10;;;23.70;;
5612;SDS011;63463;53.586;9.928;2024-03-23T05:49:15;156.37;;;24.07;;
5612;SDS011;63463;53.586;9.928;2024-03-23T05:51:43;155.43;;;23.60;;
5612;SDS011;63463;53.586;9.928;2024-03-23T05:54:08;157.40;;;24.13;;
5612;SDS011;63463;53.586;9.928;2024-03-23T05:56:34;155.00;;;23.43;;
5612;SDS011;63463;53.586;9.928;2024-03-23T05:59:00;156.27;;;23.50;;
5612;SDS011;63463;53.586;9.928;2024-03-23T06:01:28;155.00;;;22.90;;
5612;SDS011;63463;53.586;9.928;2024-03-23T06:03:54;155.17;;;23.63;;
5612;SDS011;63463;53.586;9.928;2024-03-23T06:06:20;154.47;;;22.60;;
5612;SDS011;63463;53.586;9.928;2024-03-23T06:08:46;155.00;;;23.30;;
5612;SDS011;63463;53.586;9.928;2024-03-23T06:11:12;154.20;;;22.20;;
5612;SDS011;63463;53.586;9.928;2024-03-23T06:13:38;157.57;;;22.70;;
5612;SDS011;63463;53.586;9.928;2024-03-23T06:16:04;157.10;;;23.03;;
5612;SDS011;63463;53.586;9.928;2024-03-23T06:18:30;153.67;;;21.57;;
5612;SDS011;63463;53.586;9.928;2024-03-23T06:20:56;161.07;;;24.23;;
5612;SDS011;63463;53.586;9.928;2024-03-23T06:23:22;176.90;;;22.83;;
5612;SDS011;63463;53.586;9.928;2024-03-23T06:25:48;157.00;;;24.40;;
5612;SDS011;63463;53.586;9.928;2024-03-23T06:28:14;155.50;;;23.80;;
5612;SDS011;63463;53.586;9.928;2024-03-23T06:30:40;155.37;;;23.37;;
5612;SDS011;63463;53.586;9.928;2024-03-23T06:33:06;156.87;;;26.00;;
5612;SDS011;63463;53.586;9.928;2024-03-23T06:35:32;155.03;;;23.47;;
5612;SDS011;63463;53.586;9.928;2024-03-23T06:37:58;156.17;;;25.30;;
5612;SDS011;63463;53.586;9.928;2024-03-23T06:40:24;205.47;;;26.20;;
5612;SDS011;63463;53.586;9.928;2024-03-23T06:42:50;155.80;;;24.43;;
5612;SDS011;63463;53.586;9.928;2024-03-23T06:45:16;155.50;;;24.50;;
5612;SDS011;63463;53.586;9.928;2024-03-23T06:47:47;154.27;;;22.77;;
5612;SDS011;63463;53.586;9.928;2024-03-23T06:50:13;156.87;;;22.57;;
5612;SDS011;63463;53.586;9.928;2024-03-23T06:52:39;174.87;;;23.83;;
5612;SDS011;63463;53.586;9.928;2024-03-23T06:55:05;155.10;;;23.37;;
5612;SDS011;63463;53.586;9.928;2024-03-23T06:57:31;155.47;;;23.50;;
5612;SDS011;63463;53.586;9.928;2024-03-23T06:59:57;154.97;;;22.93;;
5612;SDS011;63463;53.586;9.928;2024-03-23T07:02:23;154.03;;;23.60;;
5612;SDS011;63463;53.586;9.928;2024-03-23T07:04:49;153.53;;;23.07;;
5612;SDS011;63463;53.586;9.928;2024-03-23T07:07:15;161.10;;;25.37;;
5612;SDS011;63463;53.586;9.928;2024-03-23T07:09:41;156.47;;;24.80;;
5612;SDS011;63463;53.586;9.928;2024-03-23T07:12:07;155.37;;;23.97;;
5612;SDS011;63463;53.586;9.928;2024-03-23T07:14:32;160.80;;;24.57;;
5612;SDS011;63463;53.586;9.928;2024-03-23T07:16:58;155.03;;;24.20;;
5612;SDS011;63463;53.586;9.928;2024-03-23T07:19:24;155.37;;;24.07;;
5612;SDS011;63463;53.586;9.928;2024-03-23T07:21:50;154.73;;;23.80;;
5612;SDS011;63463;53.586;9.928;2024-03-23T07:24:16;154.17;;;23.17;;
5612;SDS011;63463;53.586;9.928;2024-03-23T07:26:42;154.70;;;23.10;;
5612;SDS011;63463;53.586;9.928;2024-03-23T07:29:08;155.60;;;23.60;;
5612;SDS011;63463;53.586;9.928;2024-03-23T07:31:34;154.60;;;23.27;;
5612;SDS011;63463;53.586;9.928;2024-03-23T07:34:00;154.30;;;23.70;;
5612;SDS011;63463;53.586;9.928;2024-03-23T07:36:26;154.37;;;23.20;;
5612;SDS011;63463;53.586;9.928;2024-03-23T07:38:52;154.87;;;23.57;;
5612;SDS011;63463;53.586;9.928;2024-03-23T07:41:19;155.30;;;24.10;;
5612;SDS011;63463;53.586;9.928;2024-03-23T07:43:45;155.83;;;23.87;;
5612;SDS011;63463;53.586;9.928;2024-03-23T07:46:11;154.47;;;23.50;;
5612;SDS011;63463;53.586;9.928;2024-03-23T07:48:37;155.27;;;23.70;;
5612;SDS011;63463;53.586;9.928;2024-03-23T07:51:06;154.97;;;23.23;;
5612;SDS011;63463;53.586;9.928;2024-03-23T07:53:33;154.37;;;22.93;;
5612;SDS011;63463;53.586;9.928;2024-03-23T07:56:06;156.87;;;23.10;;
5612;SDS011;63463;53.586;9.928;2024-03-23T07:58:32;155.67;;;24.23;;
5612;SDS011;63463;53.586;9.928;2024-03-23T08:01:05;155.00;;;23.57;;
5612;SDS011;63463;53.586;9.928;2024-03-23T08:03:33;154.00;;;23.33;;
5612;SDS011;63463;53.586;9.928;2024-03-23T08:06:06;153.80;;;23.37;;
5612;SDS011;63463;53.586;9.928;2024-03-23T08:08:32;153.43;;;23.73;;
5612;SDS011;63463;53.586;9.928;2024-03-23T08:10:58;153.93;;;23.13;;
5612;SDS011;63463;53.586;9.928;2024-03-23T08:13:24;152.10;;;22.23;;
5612;SDS011;63463;53.586;9.928;2024-03-23T08:15:50;150.73;;;21.77;;
5612;SDS011;63463;53.586;9.928;2024-03-23T08:18:15;150.77;;;21.13;;
5612;SDS011;63463;53.586;9.928;2024-03-23T08:20:41;150.37;;;21.20;;
5612;SDS011;63463;53.586;9.928;2024-03-23T08:23:07;150.00;;;21.43;;
5612;SDS011;63463;53.586;9.928;2024-03-23T08:25:34;148.80;;;18.77;;
5612;SDS011;63463;53.586;9.928;2024-03-23T08:28:00;146.60;;;18.13;;
5612;SDS011;63463;53.586;9.928;2024-03-23T08:30:26;146.97;;;19.97;;
5612;SDS011;63463;53.586;9.928;2024-03-23T08:32:52;145.13;;;17.90;;
5612;SDS011;63463;53.586;9.928;2024-03-23T08:35:18;145.97;;;19.53;;
5612;SDS011;63463;53.586;9.928;2024-03-23T08:37:44;146.07;;;17.27;;
5612;SDS011;63463;53.586;9.928;2024-03-23T08:40:10;145.97;;;17.83;;
5612;SDS011;63463;53.586;9.928;2024-03-23T08:42:36;142.23;;;16.33;;
5612;SDS011;63463;53.586;9.928;2024-03-23T08:45:02;143.40;;;16.77;;
5612;SDS011;63463;53.586;9.928;2024-03-23T08:47:27;142.37;;;14.67;;
5612;SDS011;63463;53.586;9.928;2024-03-23T08:49:53;139.37;;;12.60;;
5612;SDS011;63463;53.586;9.928;2024-03-23T08:52:20;138.37;;;13.43;;
5612;SDS011;63463;53.586;9.928;2024-03-23T08:54:48;138.17;;;12.50;;
5612;SDS011;63463;53.586;9.928;2024-03-23T08:57:13;137.40;;;12.30;;
5612;SDS011;63463;53.586;9.928;2024-03-23T08:59:39;137.53;;;11.73;;
5612;SDS011;63463;53.586;9.928;2024-03-23T09:02:05;137.20;;;12.17;;
5612;SDS011;63463;53.586;9.928;2024-03-23T09:04:31;136.67;;;11.63;;
5612;SDS011;63463;53.586;9.928;2024-03-23T09:06:57;135.90;;;11.53;;
5612;SDS011;63463;53.586;9.928;2024-03-23T09:09:24;133.87;;;10.07;;
5612;SDS011;63463;53.586;9.928;2024-03-23T09:11:50;134.07;;;10.60;;
5612;SDS011;63463;53.586;9.928;2024-03-23T09:14:16;132.17;;;10.07;;
5612;SDS011;63463;53.586;9.928;2024-03-23T09:16:42;132.70;;;10.33;;
5612;SDS011;63463;53.586;9.928;2024-03-23T09:19:08;133.00;;;11.13;;
5612;SDS011;63463;53.586;9.928;2024-03-23T09:21:34;130.17;;;8.63;;
5612;SDS011;63463;53.586;9.928;2024-03-23T09:24:00;130.73;;;9.07;;
5612;SDS011;63463;53.586;9.928;2024-03-23T09:26:26;135.10;;;9.90;;
5612;SDS011;63463;53.586;9.928;2024-03-23T09:28:52;130.90;;;8.97;;
5612;SDS011;63463;53.586;9.928;2024-03-23T09:31:18;130.47;;;8.63;;
5612;SDS011;63463;53.586;9.928;2024-03-23T09:33:43;130.73;;;8.83;;
5612;SDS011;63463;53.586;9.928;2024-03-23T09:36:10;130.13;;;8.63;;
5612;SDS011;63463;53.586;9.928;2024-03-23T09:38:36;131.00;;;9.33;;
5612;SDS011;63463;53.586;9.928;2024-03-23T09:41:06;127.77;;;8.10;;
5612;SDS011;63463;53.586;9.928;2024-03-23T09:43:32;126.67;;;8.00;;
5612;SDS011;63463;53.586;9.928;2024-03-23T09:45:58;127.77;;;8.00;;
5612;SDS011;63463;53.586;9.928;2024-03-23T09:48:24;127.10;;;8.00;;
5612;SDS011;63463;53.586;9.928;2024-03-23T09:50:51;126.90;;;7.80;;
5612;SDS011;63463;53.586;9.928;2024-03-23T09:53:17;127.17;;;8.33;;
5612;SDS011;63463;53.586;9.928;2024-03-23T09:55:43;126.10;;;7.80;;
5612;SDS011;63463;53.586;9.928;2024-03-23T09:58:13;127.97;;;8.07;;
5612;SDS011;63463;53.586;9.928;2024-03-23T10:00:39;129.40;;;9.00;;
5612;SDS011;63463;53.586;9.928;2024-03-23T10:03:05;130.20;;;9.00;;
5612;SDS011;63463;53.586;9.928;2024-03-23T10:05:32;131.37;;;9.10;;
5612;SDS011;63463;53.586;9.928;2024-03-23T10:10:39;132.23;;;9.53;;
5612;SDS011;63463;53.586;9.928;2024-03-23T10:13:05;132.23;;;8.53;;
5612;SDS011;63463;53.586;9.928;2024-03-23T10:15:33;134.47;;;9.23;;
5612;SDS011;63463;53.586;9.928;2024-03-23T10:18:02;133.90;;;9.10;;
5612;SDS011;63463;53.586;9.928;2024-03-23T10:20:43;131.10;;;8.77;;
5612;SDS011;63463;53.586;9.928;2024-03-23T10:23:16;129.97;;;8.30;;
5612;SDS011;63463;53.586;9.928;2024-03-23T10:25:42;129.70;;;7.90;;
5612;SDS011;63463;53.586;9.928;2024-03-23T10:28:08;129.20;;;8.37;;
5612;SDS011;63463;53.586;9.928;2024-03-23T10:30:34;129.40;;;8.43;;
5612;SDS011;63463;53.586;9.928;2024-03-23T10:33:10;128.47;;;8.10;;
5612;SDS011;63463;53.586;9.928;2024-03-23T10:35:36;129.17;;;8.67;;
5612;SDS011;63463;53.586;9.928;2024-03-23T10:38:06;128.80;;;8.40;;
5612;SDS011;63463;53.586;9.928;2024-03-23T10:40:35;129.57;;;8.57;;
5612;SDS011;63463;53.586;9.928;2024-03-23T10:43:02;130.60;;;8.87;;
5612;SDS011;63463;53.586;9.928;2024-03-23T10:45:29;130.87;;;8.73;;
5612;SDS011;63463;53.586;9.928;2024-03-23T10:47:55;130.57;;;8.73;;
5612;SDS011;63463;53.586;9.928;2024-03-23T10:50:21;130.97;;;9.00;;
5612;SDS011;63463;53.586;9.928;2024-03-23T10:52:48;130.47;;;8.73;;
5612;SDS011;63463;53.586;9.928;2024-03-23T10:55:17;129.70;;;8.73;;
5612;SDS011;63463;53.586;9.928;2024-03-23T10:57:51;128.40;;;8.20;;
5612;SDS011;63463;53.586;9.928;2024-03-23T11:00:18;128.47;;;8.10;;
5612;SDS011;63463;53.586;9.928;2024-03-23T11:02:47;127.60;;;8.00;;
5612;SDS011;63463;53.586;9.928;2024-03-23T11:05:31;127.63;;;7.80;;
5612;SDS011;63463;53.586;9.928;2024-03-23T11:07:57;124.73;;;7.77;;
5612;SDS011;63463;53.586;9.928;2024-03-23T11:10:27;122.70;;;7.80;;
5612;SDS011;63463;53.586;9.928;2024-03-23T11:12:58;123.27;;;7.70;;
5612;SDS011;63463;53.586;9.928;2024-03-23T11:15:24;120.93;;;7.30;;
5612;SDS011;63463;53.586;9.928;2024-03-23T11:18:06;119.30;;;6.70;;
5612;SDS011;63463;53.586;9.928;2024-03-23T11:20:35;118.50;;;6.53;;
5612;SDS011;63463;53.586;9.928;2024-03-23T11:23:01;118.70;;;6.87;;
5612;SDS011;63463;53.586;9.928;2024-03-23T11:25:28;119.77;;;7.40;;
5612;SDS011;63463;53.586;9.928;2024-03-23T11:30:20;117.33;;;6.90;;
5612;SDS011;63463;53.586;9.928;2024-03-23T11:32:47;117.10;;;7.33;;
5612;SDS011;63463;53.586;9.928;2024-03-23T11:35:29;117.17;;;6.67;;
5612;SDS011;63463;53.586;9.928;2024-03-23T11:38:12;116.47;;;6.60;;
5612;SDS011;63463;53.586;9.928;2024-03-23T11:40:38;114.00;;;6.23;;
5612;SDS011;63463;53.586;9.928;2024-03-23T11:43:05;111.57;;;6.27;;
5612;SDS011;63463;53.586;9.928;2024-03-23T11:45:35;110.10;;;5.43;;
5612;SDS011;63463;53.586;9.928;2024-03-23T11:50:30;108.27;;;5.90;;
5612;SDS011;63463;53.586;9.928;2024-03-23T11:55:56;111.70;;;6.57;;
5612;SDS011;63463;53.586;9.928;2024-03-23T11:58:23;115.90;;;6.87;;
5612;SDS011;63463;53.586;9.928;2024-03-23T12:00:50;122.77;;;8.67;;
5612;SDS011;63463;53.586;9.928;2024-03-23T12:03:17;123.67;;;8.97;;
5612;SDS011;63463;53.586;9.928;2024-03-23T12:05:47;124.47;;;8.57;;
5612;SDS011;63463;53.586;9.928;2024-03-23T12:08:17;128.57;;;9.70;;
5612;SDS011;63463;53.586;9.928;2024-03-23T12:10:52;132.20;;;10.27;;
5612;SDS011;63463;53.586;9.928;2024-03-23T12:13:19;132.90;;;10.67;;
5612;SDS011;63463;53.586;9.928;2024-03-23T12:15:46;131.67;;;9.97;;
5612;SDS011;63463;53.586;9.928;2024-03-23T12:18:12;136.23;;;10.80;;
5612;SDS011;63463;53.586;9.928;2024-03-23T12:20:38;136.90;;;10.87;;
5612;SDS011;63463;53.586;9.928;2024-03-23T12:23:12;137.90;;;11.00;;
5612;SDS011;63463;53.586;9.928;2024-03-23T12:25:38;140.23;;;11.80;;
5612;SDS011;63463;53.586;9.928;2024-03-23T12:28:05;139.57;;;11.93;;
5612;SDS011;63463;53.586;9.928;2024-03-23T12:30:40;138.87;;;11.50;;
5612;SDS011;63463;53.586;9.928;2024-03-23T12:33:06;136.80;;;11.23;;
5612;SDS011;63463;53.586;9.928;2024-03-23T12:35:32;138.17;;;11.60;;
5612;SDS011;63463;53.586;9.928;2024-03-23T12:37:58;137.30;;;10.87;;
5612;SDS011;63463;53.586;9.928;2024-03-23T12:40:25;138.30;;;12.07;;
5612;SDS011;63463;53.586;9.928;2024-03-23T12:42:51;138.37;;;11.80;;
5612;SDS011;63463;53.586;9.928;2024-03-23T12:45:17;139.17;;;12.57;;
5612;SDS011;63463;53.586;9.928;2024-03-23T12:47:43;139.37;;;12.87;;
5612;SDS011;63463;53.586;9.928;2024-03-23T12:50:09;139.63;;;12.60;;
5612;SDS011;63463;53.586;9.928;2024-03-23T12:52:36;139.60;;;12.67;;
5612;SDS011;63463;53.586;9.928;2024-03-23T12:55:02;139.60;;;12.63;;
5612;SDS011;63463;53.586;9.928;2024-03-23T12:57:31;139.70;;;13.20;;
5612;SDS011;63463;53.586;9.928;2024-03-23T12:59:58;139.23;;;12.60;;
5612;SDS011;63463;53.586;9.928;2024-03-23T13:02:23;139.20;;;13.70;;
5612;SDS011;63463;53.586;9.928;2024-03-23T13:04:50;139.70;;;13.73;;
5612;SDS011;63463;53.586;9.928;2024-03-23T13:07:16;137.90;;;12.47;;
5612;SDS011;63463;53.586;9.928;2024-03-23T13:09:44;137.47;;;12.23;;
5612;SDS011;63463;53.586;9.928;2024-03-23T13:12:10;138.47;;;12.37;;
5612;SDS011;63463;53.586;9.928;2024-03-23T13:14:39;138.60;;;12.80;;
5612;SDS011;63463;53.586;9.928;2024-03-23T13:17:05;139.27;;;13.03;;
5612;SDS011;63463;53.586;9.928;2024-03-23T13:19:31;138.97;;;13.07;;
5612;SDS011;63463;53.586;9.928;2024-03-23T13:21:57;139.20;;;12.87;;
5612;SDS011;63463;53.586;9.928;2024-03-23T13:24:24;138.83;;;12.60;;
5612;SDS011;63463;53.586;9.928;2024-03-23T13:26:51;139.77;;;13.43;;
5612;SDS011;63463;53.586;9.928;2024-03-23T13:29:18;139.30;;;12.70;;
5612;SDS011;63463;53.586;9.928;2024-03-23T13:31:44;140.70;;;13.53;;
5612;SDS011;63463;53.586;9.928;2024-03-23T13:34:10;139.90;;;13.63;;
5612;SDS011;63463;53.586;9.928;2024-03-23T13:36:36;140.67;;;13.97;;
5612;SDS011;63463;53.586;9.928;2024-03-23T13:39:03;139.77;;;13.73;;
5612;SDS011;63463;53.586;9.928;2024-03-23T13:41:35;140.57;;;13.73;;
5612;SDS011;63463;53.586;9.928;2024-03-23T13:44:01;139.80;;;13.90;;
5612;SDS011;63463;53.586;9.928;2024-03-23T13:46:28;138.90;;;13.10;;
5612;SDS011;63463;53.586;9.928;2024-03-23T13:48:53;138.67;;;12.80;;
5612;SDS011;63463;53.586;9.928;2024-03-23T13:51:23;138.17;;;12.50;;
5612;SDS011;63463;53.586;9.928;2024-03-23T13:53:50;137.40;;;12.23;;
5612;SDS011;63463;53.586;9.928;2024-03-23T13:56:16;136.97;;;12.90;;
5612;SDS011;63463;53.586;9.928;2024-03-23T13:58:42;137.07;;;12.70;;
5612;SDS011;63463;53.586;9.928;2024-03-23T14:01:11;136.50;;;11.77;;
5612;SDS011;63463;53.586;9.928;2024-03-23T14:03:37;135.57;;;11.30;;
5612;SDS011;63463;53.586;9.928;2024-03-23T14:06:03;136.07;;;11.70;;
5612;SDS011;63463;53.586;9.928;2024-03-23T14:08:31;134.67;;;10.47;;
5612;SDS011;63463;53.586;9.928;2024-03-23T14:10:58;133.97;;;10.83;;
5612;SDS011;63463;53.586;9.928;2024-03-23T14:13:24;136.07;;;11.17;;
5612;SDS011;63463;53.586;9.928;2024-03-23T14:15:53;134.97;;;10.70;;
5612;SDS011;63463;53.586;9.928;2024-03-23T14:18:19;135.37;;;10.77;;
5612;SDS011;63463;53.586;9.928;2024-03-23T14:20:47;135.90;;;10.80;;
5612;SDS011;63463;53.586;9.928;2024-03-23T14:23:13;136.47;;;11.03;;
5612;SDS011;63463;53.586;9.928;2024-03-23T14:25:39;135.63;;;10.53;;
5612;SDS011;63463;53.586;9.928;2024-03-23T14:28:05;136.17;;;11.53;;
5612;SDS011;63463;53.586;9.928;2024-03-23T14:30:31;137.50;;;11.50;;
5612;SDS011;63463;53.586;9.928;2024-03-23T14:32:57;136.97;;;10.70;;
5612;SDS011;63463;53.586;9.928;2024-03-23T14:35:23;137.10;;;10.67;;
5612;SDS011;63463;53.586;9.928;2024-03-23T14:37:49;136.97;;;10.70;;
5612;SDS011;63463;53.586;9.928;2024-03-23T14:40:18;136.90;;;10.80;;
5612;SDS011;63463;53.586;9.928;2024-03-23T14:42:44;136.87;;;10.70;;
5612;SDS011;63463;53.586;9.928;2024-03-23T14:45:10;136.60;;;10.50;;
5612;SDS011;63463;53.586;9.928;2024-03-23T14:47:36;138.97;;;10.97;;
5612;SDS011;63463;53.586;9.928;2024-03-23T14:50:02;137.07;;;10.60;;
5612;SDS011;63463;53.586;9.928;2024-03-23T14:52:28;138.60;;;10.60;;
5612;SDS011;63463;53.586;9.928;2024-03-23T14:54:54;138.90;;;11.10;;
5612;SDS011;63463;53.586;9.928;2024-03-23T14:57:21;138.87;;;11.40;;
5612;SDS011;63463;53.586;9.928;2024-03-23T14:59:47;139.63;;;11.90;;
5612;SDS011;63463;53.586;9.928;2024-03-23T15:02:13;140.07;;;12.07;;
5612;SDS011;63463;53.586;9.928;2024-03-23T15:04:39;137.80;;;12.17;;
5612;SDS011;63463;53.586;9.928;2024-03-23T15:07:06;139.57;;;11.80;;
5612;SDS011;63463;53.586;9.928;2024-03-23T15:09:32;139.57;;;12.50;;
5612;SDS011;63463;53.586;9.928;2024-03-23T15:11:58;139.40;;;12.70;;
5612;SDS011;63463;53.586;9.928;2024-03-23T15:14:24;139.53;;;12.13;;
5612;SDS011;63463;53.586;9.928;2024-03-23T15:16:50;139.00;;;12.50;;
5612;SDS011;63463;53.586;9.928;2024-03-23T15:19:17;139.37;;;12.57;;
5612;SDS011;63463;53.586;9.928;2024-03-23T15:21:43;139.33;;;12.30;;
5612;SDS011;63463;53.586;9.928;2024-03-23T15:24:09;138.77;;;12.40;;
5612;SDS011;63463;53.586;9.928;2024-03-23T15:26:38;139.07;;;13.23;;